Tor Futura — OZZE2 — position and weather

sailwx.info

Track history (hours):
 
Tides and Currents Weather Stations Pressure Air Temp Water Temp Dewpoint Dewpoint Depression Visibility Wind Speed Wind Dir Waves Ship Positions

Tor Futura

Last reported at 2014-Aug-28 02:33 UTC. Time now 2014-Aug-28 03:19 UTC.
Position N 37°07' E 010°24'.

Length 183.1 m; beam 25.2 m; draft 7.8 m.

Type: Cargo ship. MMSI: 219927000.

Date/timePositionNaut miles runAvg speedWind from/ knotsBaromVisibWave heightAir tempDewpointWater temp
2014-Aug-28 02:33N 37°07' E 010°24'1313.0
2014-Aug-28 01:32N 37°20' E 010°24'1212.6
2014-Aug-28 00:33N 37°32' E 010°24'1313.1
2014-Aug-27 23:34N 37°42' E 010°13'1413.7
2014-Aug-27 22:33N 37°51' E 009°59'1413.6
2014-Aug-27 21:33N 37°59' E 009°45'1313.4
2014-Aug-27 20:33N 38°07' E 009°33'1313.4
2014-Aug-27 19:33N 38°16' E 009°20'1413.5
2014-Aug-27 18:33N 38°24' E 009°06'1413.7
2014-Aug-27 17:34N 38°33' E 008°52'1414.2
2014-Aug-27 16:34N 38°41' E 008°38'1413.9
2014-Aug-27 15:33N 38°50' E 008°24'1413.7
2014-Aug-27 14:34N 39°01' E 008°14'1614.1
2014-Aug-27 13:27N 39°15' E 008°04'1314.7
2014-Aug-27 12:32N 39°27' E 007°56'10414.3
2014-Aug-27 05:17N 40°57' E 006°50'6714.1
2014-Aug-27 00:33N 41°55' E 006°06'1413.9
2014-Aug-26 23:33N 42°08' E 005°57'1413.9
2014-Aug-26 22:34N 42°20' E 005°48'1414.1
2014-Aug-26 21:33N 42°32' E 005°39'1414.1
2014-Aug-26 20:33N 42°45' E 005°30'1413.8
2014-Aug-26 19:33N 42°56' E 005°21'1514.1
2014-Aug-26 18:30N 43°10' E 005°11'1111.2
2014-Aug-26 17:33N 43°20' E 005°16'4 3.7
2014-Aug-26 16:23N 43°19' E 005°22'0 0.0
2014-Aug-26 15:29N 43°19' E 005°22'0 0.0
2014-Aug-26 14:32N 43°19' E 005°22'0 0.0
2014-Aug-26 13:32N 43°19' E 005°22'0 0.0
2014-Aug-26 12:32N 43°19' E 005°22'0 0.0
2014-Aug-26 11:32N 43°19' E 005°22'0 0.0
2014-Aug-26 10:32N 43°19' E 005°22'0 0.0
2014-Aug-26 09:32N 43°19' E 005°22'0 0.0
2014-Aug-26 08:32N 43°19' E 005°22'0 0.0
2014-Aug-26 07:32N 43°19' E 005°22'0 0.0
2014-Aug-26 06:32N 43°19' E 005°22'0 0.0
2014-Aug-26 05:32N 43°19' E 005°22'0 0.0
2014-Aug-26 04:23N 43°19' E 005°22'0 0.0
2014-Aug-26 03:32N 43°19' E 005°22'0 0.0
2014-Aug-26 02:32N 43°19' E 005°22'0 0.0
2014-Aug-26 01:32N 43°19' E 005°22'0 0.0
2014-Aug-26 00:32N 43°19' E 005°22'0 0.0
2014-Aug-25 23:32N 43°19' E 005°22'0 0.0
2014-Aug-25 22:29N 43°19' E 005°22'0 0.0
2014-Aug-25 21:32N 43°19' E 005°22'0 0.0
2014-Aug-25 20:32N 43°19' E 005°22'0 0.0
2014-Aug-25 19:32N 43°19' E 005°22'0 0.0
2014-Aug-25 18:32N 43°19' E 005°22'0 0.0
2014-Aug-25 17:29N 43°19' E 005°22'0 0.0
2014-Aug-25 16:32N 43°19' E 005°22'0 0.0
2014-Aug-25 15:32N 43°19' E 005°22'0 0.0
2014-Aug-25 14:26N 43°19' E 005°22'0 0.0
2014-Aug-25 13:32N 43°19' E 005°22'0 0.0
2014-Aug-25 12:29N 43°19' E 005°22'0 0.0
2014-Aug-25 11:26N 43°19' E 005°22'0 0.0
2014-Aug-25 10:32N 43°19' E 005°22'0 0.0
2014-Aug-25 09:32N 43°19' E 005°22'0 0.0
2014-Aug-25 08:29N 43°19' E 005°22'0 0.0
2014-Aug-25 07:32N 43°19' E 005°22'0 0.0
2014-Aug-25 06:32N 43°19' E 005°22'2 2.6
2014-Aug-25 05:34N 43°21' E 005°19'1212.4
2014-Aug-25 04:33N 43°09' E 005°12'1817.9
2014-Aug-25 03:33N 42°54' E 005°24'1818.2
2014-Aug-25 02:33N 42°38' E 005°36'1817.9
2014-Aug-25 01:34N 42°23' E 005°48'3718.1
2014-Aug-24 23:32N 41°50' E 006°12'16117.3
2014-Aug-24 14:13N 39°28' E 007°53'4617.3
2014-Aug-24 11:33N 38°49' E 008°25'1817.6
2014-Aug-24 10:33N 38°39' E 008°42'3617.4
2014-Aug-24 08:28N 38°16' E 009°19'2017.7
2014-Aug-24 07:19N 38°03' E 009°39'6310.3
2014-Aug-24 01:13N 37°14' E 010°28'1015.6
2014-Aug-24 00:33N 37°04' E 010°24'1715.6
2014-Aug-23 23:28N 36°48' E 010°21'4 4.5
2014-Aug-23 22:33N 36°48' E 010°16'0 0.0
2014-Aug-23 21:33N 36°48' E 010°16'0 0.0
2014-Aug-23 20:31N 36°48' E 010°16'28 1.5
2014-Aug-23 02:09N 37°15' E 010°25'4712.7
2014-Aug-22 22:25N 37°54' E 009°51'1213.7
2014-Aug-22 21:33N 38°00' E 009°39'1413.5
2014-Aug-22 20:33N 38°07' E 009°24'1313.2
2014-Aug-22 19:33N 38°15' E 009°10'1312.8
2014-Aug-22 18:33N 38°22' E 008°57'1312.9
2014-Aug-22 17:32N 38°29' E 008°43'1313.2
2014-Aug-22 16:34N 38°37' E 008°29'1313.1
2014-Aug-22 15:33N 38°44' E 008°15'1312.8
2014-Aug-22 14:33N 38°54' E 008°06'1312.8
2014-Aug-22 13:33N 39°06' E 007°58'1413.0
2014-Aug-22 12:29N 39°18' E 007°50'1213.3
2014-Aug-22 11:33N 39°29' E 007°43'16314.7
2014-Aug-22 00:26N 41°54' E 006°03'1315.1
2014-Aug-21 23:33N 42°06' E 005°55'1616.4
2014-Aug-21 22:33N 42°21' E 005°45'1615.9
2014-Aug-21 21:32N 42°35' E 005°35'1616.2
2014-Aug-21 20:33N 42°49' E 005°25'1615.8
2014-Aug-21 19:34N 43°03' E 005°15'1414.3
2014-Aug-21 18:33N 43°17' E 005°10'9 8.7
2014-Aug-21 17:33N 43°19' E 005°22'0 0.0
2014-Aug-21 16:33N 43°19' E 005°22'0 0.0
2014-Aug-21 15:33N 43°19' E 005°22'0 0.0
2014-Aug-21 14:33N 43°19' E 005°22'0 0.0
2014-Aug-21 13:30N 43°19' E 005°22'0 0.0
2014-Aug-21 12:33N 43°19' E 005°22'0 0.0
2014-Aug-21 11:33N 43°19' E 005°22'0 0.0
2014-Aug-21 10:33N 43°19' E 005°22'0 0.0
2014-Aug-21 09:30N 43°19' E 005°22'0 0.0
2014-Aug-21 08:33N 43°19' E 005°22'0 0.0
2014-Aug-21 07:27N 43°19' E 005°22'0 0.0
2014-Aug-21 06:33N 43°19' E 005°22'0 0.0
2014-Aug-21 05:33N 43°19' E 005°22'0 0.0
2014-Aug-21 04:33N 43°19' E 005°22'0 0.0
2014-Aug-21 03:30N 43°19' E 005°22'0 0.0
2014-Aug-21 02:33N 43°19' E 005°22'0 0.0
2014-Aug-21 01:27N 43°19' E 005°22'0 0.0
2014-Aug-21 00:33N 43°19' E 005°22'0 0.0
2014-Aug-20 23:33N 43°19' E 005°22'0 0.0
2014-Aug-20 22:30N 43°19' E 005°22'0 0.0
2014-Aug-20 21:33N 43°19' E 005°22'0 0.0
2014-Aug-20 20:33N 43°19' E 005°22'0 0.0
2014-Aug-20 19:33N 43°19' E 005°22'0 0.0
2014-Aug-20 18:33N 43°19' E 005°22'0 0.0
2014-Aug-20 17:33N 43°19' E 005°22'0 0.0
2014-Aug-20 16:33N 43°19' E 005°22'0 0.0
2014-Aug-20 15:33N 43°19' E 005°22'0 0.0
2014-Aug-20 14:33N 43°19' E 005°22'0 0.0
2014-Aug-20 13:33N 43°19' E 005°22'0 0.0
2014-Aug-20 12:27N 43°19' E 005°22'0 0.0
2014-Aug-20 11:33N 43°19' E 005°22'0 0.0
2014-Aug-20 10:33N 43°19' E 005°22'1 1.1
2014-Aug-20 09:33N 43°20' E 005°21'9 9.4
2014-Aug-20 08:33N 43°14' E 005°11'1515.3
2014-Aug-20 07:33N 43°01' E 004°59'1514.7
2014-Aug-20 06:32N 42°50' E 004°46'1615.7
2014-Aug-20 05:32N 42°37' E 004°33'1615.9
2014-Aug-20 04:33N 42°25' E 004°20'1514.9
2014-Aug-20 03:33N 42°13' E 004°08'1515.0
2014-Aug-20 02:33N 42°01' E 003°55'1514.5
2014-Aug-20 01:33N 41°50' E 003°43'1414.2
2014-Aug-20 00:33N 41°39' E 003°31'1414.3
2014-Aug-19 23:33N 41°28' E 003°19'1414.4
2014-Aug-19 22:34N 41°17' E 003°07'1413.7
2014-Aug-19 21:33N 41°05' E 002°58'1414.6
2014-Aug-19 20:33N 40°54' E 002°45'1414.0
2014-Aug-19 19:34N 40°44' E 002°33'1514.6
2014-Aug-19 18:33N 40°34' E 002°18'1414.4
2014-Aug-19 17:33N 40°23' E 002°07'1414.0
2014-Aug-19 16:33N 40°12' E 001°55'8 8.1
2014-Aug-19 15:34N 40°06' E 001°47'1 0.8
2014-Aug-19 14:33N 40°06' E 001°48'1 0.7
2014-Aug-19 13:33N 40°06' E 001°49'1 0.6
2014-Aug-19 12:33N 40°06' E 001°50'0 0.5
2014-Aug-19 11:33N 40°06' E 001°51'0 0.4
2014-Aug-19 10:33N 40°06' E 001°51'0 0.4
2014-Aug-19 09:33N 40°05' E 001°52'0 0.4
2014-Aug-19 08:33N 40°05' E 001°52'0 0.5
2014-Aug-19 07:33N 40°05' E 001°53'0 0.4
2014-Aug-19 06:33N 40°05' E 001°53'2 2.3
2014-Aug-19 05:33N 40°03' E 001°51'1616.1
2014-Aug-19 04:33N 39°50' E 001°38'1616.4
2014-Aug-19 03:33N 39°38' E 001°25'1716.5
2014-Aug-19 02:32N 39°25' E 001°11'1817.0
2014-Aug-19 01:28N 39°11' E 000°56'1616.6
2014-Aug-19 00:30N 38°58' E 000°43'1615.8
2014-Aug-18 23:30N 38°46' E 000°31'1616.8
2014-Aug-18 22:33N 38°32' E 000°20'2316.6
2014-Aug-18 21:10N 38°13' E 000°03'3216.4
2014-Aug-18 19:12N 37°46' W 000°19'1015.9
2014-Aug-18 18:33N 37°38' W 000°27'1615.5
2014-Aug-18 17:32N 37°26' W 000°41'1514.8
2014-Aug-18 16:33N 37°17' W 000°54'4814.9
2014-Aug-18 13:19N 36°44' W 001°39'  
Track history (hours):
 
Tides and Currents Weather Stations Pressure Air Temp Water Temp Dewpoint Dewpoint Depression Visibility Wind Speed Wind Dir Waves Ship Positions

Tor Futura

Last reported at 2014-Aug-28 02:33 UTC. Time now 2014-Aug-28 03:19 UTC.
Position N 37°07' E 010°24'.

Length 183.1 m; beam 25.2 m; draft 7.8 m.

Type: Cargo ship. MMSI: 219927000.

Date/timePositionNaut miles runAvg speedWind from/ knotsBaromVisibWave heightAir tempDewpointWater temp
2014-Aug-28 02:33N 37°07' E 010°24'1313.0
2014-Aug-28 01:32N 37°20' E 010°24'1212.6
2014-Aug-28 00:33N 37°32' E 010°24'1313.1
2014-Aug-27 23:34N 37°42' E 010°13'1413.7
2014-Aug-27 22:33N 37°51' E 009°59'1413.6
2014-Aug-27 21:33N 37°59' E 009°45'1313.4
2014-Aug-27 20:33N 38°07' E 009°33'1313.4
2014-Aug-27 19:33N 38°16' E 009°20'1413.5
2014-Aug-27 18:33N 38°24' E 009°06'1413.7
2014-Aug-27 17:34N 38°33' E 008°52'1414.2
2014-Aug-27 16:34N 38°41' E 008°38'1413.9
2014-Aug-27 15:33N 38°50' E 008°24'1413.7
2014-Aug-27 14:34N 39°01' E 008°14'1614.1
2014-Aug-27 13:27N 39°15' E 008°04'1314.7
2014-Aug-27 12:32N 39°27' E 007°56'10414.3
2014-Aug-27 05:17N 40°57' E 006°50'6714.1
2014-Aug-27 00:33N 41°55' E 006°06'1413.9
2014-Aug-26 23:33N 42°08' E 005°57'1413.9
2014-Aug-26 22:34N 42°20' E 005°48'1414.1
2014-Aug-26 21:33N 42°32' E 005°39'1414.1
2014-Aug-26 20:33N 42°45' E 005°30'1413.8
2014-Aug-26 19:33N 42°56' E 005°21'1514.1
2014-Aug-26 18:30N 43°10' E 005°11'1111.2
2014-Aug-26 17:33N 43°20' E 005°16'4 3.7
2014-Aug-26 16:23N 43°19' E 005°22'0 0.0
2014-Aug-26 15:29N 43°19' E 005°22'0 0.0
2014-Aug-26 14:32N 43°19' E 005°22'0 0.0
2014-Aug-26 13:32N 43°19' E 005°22'0 0.0
2014-Aug-26 12:32N 43°19' E 005°22'0 0.0
2014-Aug-26 11:32N 43°19' E 005°22'0 0.0
2014-Aug-26 10:32N 43°19' E 005°22'0 0.0
2014-Aug-26 09:32N 43°19' E 005°22'0 0.0
2014-Aug-26 08:32N 43°19' E 005°22'0 0.0
2014-Aug-26 07:32N 43°19' E 005°22'0 0.0
2014-Aug-26 06:32N 43°19' E 005°22'0 0.0
2014-Aug-26 05:32N 43°19' E 005°22'0 0.0
2014-Aug-26 04:23N 43°19' E 005°22'0 0.0
2014-Aug-26 03:32N 43°19' E 005°22'0 0.0
2014-Aug-26 02:32N 43°19' E 005°22'0 0.0
2014-Aug-26 01:32N 43°19' E 005°22'0 0.0
2014-Aug-26 00:32N 43°19' E 005°22'0 0.0
2014-Aug-25 23:32N 43°19' E 005°22'0 0.0
2014-Aug-25 22:29N 43°19' E 005°22'0 0.0
2014-Aug-25 21:32N 43°19' E 005°22'0 0.0
2014-Aug-25 20:32N 43°19' E 005°22'0 0.0
2014-Aug-25 19:32N 43°19' E 005°22'0 0.0
2014-Aug-25 18:32N 43°19' E 005°22'0 0.0
2014-Aug-25 17:29N 43°19' E 005°22'0 0.0
2014-Aug-25 16:32N 43°19' E 005°22'0 0.0
2014-Aug-25 15:32N 43°19' E 005°22'0 0.0
2014-Aug-25 14:26N 43°19' E 005°22'0 0.0
2014-Aug-25 13:32N 43°19' E 005°22'0 0.0
2014-Aug-25 12:29N 43°19' E 005°22'0 0.0
2014-Aug-25 11:26N 43°19' E 005°22'0 0.0
2014-Aug-25 10:32N 43°19' E 005°22'0 0.0
2014-Aug-25 09:32N 43°19' E 005°22'0 0.0
2014-Aug-25 08:29N 43°19' E 005°22'0 0.0
2014-Aug-25 07:32N 43°19' E 005°22'0 0.0
2014-Aug-25 06:32N 43°19' E 005°22'2 2.6
2014-Aug-25 05:34N 43°21' E 005°19'1212.4
2014-Aug-25 04:33N 43°09' E 005°12'1817.9
2014-Aug-25 03:33N 42°54' E 005°24'1818.2
2014-Aug-25 02:33N 42°38' E 005°36'1817.9
2014-Aug-25 01:34N 42°23' E 005°48'3718.1
2014-Aug-24 23:32N 41°50' E 006°12'16117.3
2014-Aug-24 14:13N 39°28' E 007°53'4617.3
2014-Aug-24 11:33N 38°49' E 008°25'1817.6
2014-Aug-24 10:33N 38°39' E 008°42'3617.4
2014-Aug-24 08:28N 38°16' E 009°19'2017.7
2014-Aug-24 07:19N 38°03' E 009°39'6310.3
2014-Aug-24 01:13N 37°14' E 010°28'1015.6
2014-Aug-24 00:33N 37°04' E 010°24'1715.6
2014-Aug-23 23:28N 36°48' E 010°21'4 4.5
2014-Aug-23 22:33N 36°48' E 010°16'0 0.0
2014-Aug-23 21:33N 36°48' E 010°16'0 0.0
2014-Aug-23 20:31N 36°48' E 010°16'28 1.5
2014-Aug-23 02:09N 37°15' E 010°25'4712.7
2014-Aug-22 22:25N 37°54' E 009°51'1213.7
2014-Aug-22 21:33N 38°00' E 009°39'1413.5
2014-Aug-22 20:33N 38°07' E 009°24'1313.2
2014-Aug-22 19:33N 38°15' E 009°10'1312.8
2014-Aug-22 18:33N 38°22' E 008°57'1312.9
2014-Aug-22 17:32N 38°29' E 008°43'1313.2
2014-Aug-22 16:34N 38°37' E 008°29'1313.1
2014-Aug-22 15:33N 38°44' E 008°15'1312.8
2014-Aug-22 14:33N 38°54' E 008°06'1312.8
2014-Aug-22 13:33N 39°06' E 007°58'1413.0
2014-Aug-22 12:29N 39°18' E 007°50'1213.3
2014-Aug-22 11:33N 39°29' E 007°43'16314.7
2014-Aug-22 00:26N 41°54' E 006°03'1315.1
2014-Aug-21 23:33N 42°06' E 005°55'1616.4
2014-Aug-21 22:33N 42°21' E 005°45'1615.9
2014-Aug-21 21:32N 42°35' E 005°35'1616.2
2014-Aug-21 20:33N 42°49' E 005°25'1615.8
2014-Aug-21 19:34N 43°03' E 005°15'1414.3
2014-Aug-21 18:33N 43°17' E 005°10'9 8.7
2014-Aug-21 17:33N 43°19' E 005°22'0 0.0
2014-Aug-21 16:33N 43°19' E 005°22'0 0.0
2014-Aug-21 15:33N 43°19' E 005°22'0 0.0
2014-Aug-21 14:33N 43°19' E 005°22'0 0.0
2014-Aug-21 13:30N 43°19' E 005°22'0 0.0
2014-Aug-21 12:33N 43°19' E 005°22'0 0.0
2014-Aug-21 11:33N 43°19' E 005°22'0 0.0
2014-Aug-21 10:33N 43°19' E 005°22'0 0.0
2014-Aug-21 09:30N 43°19' E 005°22'0 0.0
2014-Aug-21 08:33N 43°19' E 005°22'0 0.0
2014-Aug-21 07:27N 43°19' E 005°22'0 0.0
2014-Aug-21 06:33N 43°19' E 005°22'0 0.0
2014-Aug-21 05:33N 43°19' E 005°22'0 0.0
2014-Aug-21 04:33N 43°19' E 005°22'0 0.0
2014-Aug-21 03:30N 43°19' E 005°22'0 0.0
2014-Aug-21 02:33N 43°19' E 005°22'0 0.0
2014-Aug-21 01:27N 43°19' E 005°22'0 0.0
2014-Aug-21 00:33N 43°19' E 005°22'0 0.0
2014-Aug-20 23:33N 43°19' E 005°22'0 0.0
2014-Aug-20 22:30N 43°19' E 005°22'0 0.0
2014-Aug-20 21:33N 43°19' E 005°22'0 0.0
2014-Aug-20 20:33N 43°19' E 005°22'0 0.0
2014-Aug-20 19:33N 43°19' E 005°22'0 0.0
2014-Aug-20 18:33N 43°19' E 005°22'0 0.0
2014-Aug-20 17:33N 43°19' E 005°22'0 0.0
2014-Aug-20 16:33N 43°19' E 005°22'0 0.0
2014-Aug-20 15:33N 43°19' E 005°22'0 0.0
2014-Aug-20 14:33N 43°19' E 005°22'0 0.0
2014-Aug-20 13:33N 43°19' E 005°22'0 0.0
2014-Aug-20 12:27N 43°19' E 005°22'0 0.0
2014-Aug-20 11:33N 43°19' E 005°22'0 0.0
2014-Aug-20 10:33N 43°19' E 005°22'1 1.1
2014-Aug-20 09:33N 43°20' E 005°21'9 9.4
2014-Aug-20 08:33N 43°14' E 005°11'1515.3
2014-Aug-20 07:33N 43°01' E 004°59'1514.7
2014-Aug-20 06:32N 42°50' E 004°46'1615.7
2014-Aug-20 05:32N 42°37' E 004°33'1615.9
2014-Aug-20 04:33N 42°25' E 004°20'1514.9
2014-Aug-20 03:33N 42°13' E 004°08'1515.0
2014-Aug-20 02:33N 42°01' E 003°55'1514.5
2014-Aug-20 01:33N 41°50' E 003°43'1414.2
2014-Aug-20 00:33N 41°39' E 003°31'1414.3
2014-Aug-19 23:33N 41°28' E 003°19'1414.4
2014-Aug-19 22:34N 41°17' E 003°07'1413.7
2014-Aug-19 21:33N 41°05' E 002°58'1414.6
2014-Aug-19 20:33N 40°54' E 002°45'1414.0
2014-Aug-19 19:34N 40°44' E 002°33'1514.6
2014-Aug-19 18:33N 40°34' E 002°18'1414.4
2014-Aug-19 17:33N 40°23' E 002°07'1414.0
2014-Aug-19 16:33N 40°12' E 001°55'8 8.1
2014-Aug-19 15:34N 40°06' E 001°47'1 0.8
2014-Aug-19 14:33N 40°06' E 001°48'1 0.7
2014-Aug-19 13:33N 40°06' E 001°49'1 0.6
2014-Aug-19 12:33N 40°06' E 001°50'0 0.5
2014-Aug-19 11:33N 40°06' E 001°51'0 0.4
2014-Aug-19 10:33N 40°06' E 001°51'0 0.4
2014-Aug-19 09:33N 40°05' E 001°52'0 0.4
2014-Aug-19 08:33N 40°05' E 001°52'0 0.5
2014-Aug-19 07:33N 40°05' E 001°53'0 0.4
2014-Aug-19 06:33N 40°05' E 001°53'2 2.3
2014-Aug-19 05:33N 40°03' E 001°51'1616.1
2014-Aug-19 04:33N 39°50' E 001°38'1616.4
2014-Aug-19 03:33N 39°38' E 001°25'1716.5
2014-Aug-19 02:32N 39°25' E 001°11'1817.0
2014-Aug-19 01:28N 39°11' E 000°56'1616.6
2014-Aug-19 00:30N 38°58' E 000°43'1615.8
2014-Aug-18 23:30N 38°46' E 000°31'1616.8
2014-Aug-18 22:33N 38°32' E 000°20'2316.6
2014-Aug-18 21:10N 38°13' E 000°03'3216.4
2014-Aug-18 19:12N 37°46' W 000°19'1015.9
2014-Aug-18 18:33N 37°38' W 000°27'1615.5
2014-Aug-18 17:32N 37°26' W 000°41'1514.8
2014-Aug-18 16:33N 37°17' W 000°54'4814.9
2014-Aug-18 13:19N 36°44' W 001°39'  

Dump ship's entire track history